Natrona, Wyoming
Current Conditions -  °F | °C
As of 8:53 PM on Monday 20 Oct 2014 (Local Time) from KCPR Reporting Station
Clear Clear  
Wind Chill: 45°   Ceiling: Unl
Heat Index: 48°   Visibility: 10mi
Dew Point: 31°   Wind: 7mph
Humidity: 52%   Direction: 210°SSW
Pressure: 30"   Gusts: NA
Location:  43.03°N, 106.81°W
Report Text: KCPR 210253Z AUTO 21006KT 10SM CLR 09/M01 A3000 RMK AO2 SLP140 T00891006 50000
Loading
Personal Weather Stations






























Interactive Weather Map
Tropical Storm Tracking
New forecast layout! Learn more

10-Day Weather Forecast

Advertisements
Track Severe Weather on mobile